sensor_id;sensor_type;location;lat;lon;timestamp;pressure;altitude;pressure_sealevel;temperature;humidity
19811;BME280;10065;49.632;8.346;2023-07-31T05:10:13;100342.06;;;19.54;61.92
19811;BME280;10065;49.632;8.346;2023-07-31T05:13:02;100352.00;;;19.47;62.12
19811;BME280;10065;49.632;8.346;2023-07-31T05:15:31;100348.31;;;19.48;62.18
19811;BME280;10065;49.632;8.346;2023-07-31T05:18:08;100341.69;;;19.50;62.07
19811;BME280;10065;49.632;8.346;2023-07-31T05:20:40;100350.16;;;19.54;61.95
19811;BME280;10065;49.632;8.346;2023-07-31T05:23:22;100345.81;;;19.53;62.24
19811;BME280;10065;49.632;8.346;2023-07-31T05:26:02;100347.47;;;19.54;62.07
19811;BME280;10065;49.632;8.346;2023-07-31T05:28:31;100347.47;;;19.54;62.70
19811;BME280;10065;49.632;8.346;2023-07-31T05:31:05;100349.56;;;19.52;62.48
19811;BME280;10065;49.632;8.346;2023-07-31T05:33:44;100346.84;;;19.59;62.46
19811;BME280;10065;49.632;8.346;2023-07-31T05:36:13;100339.16;;;19.62;62.13
19811;BME280;10065;49.632;8.346;2023-07-31T05:38:41;100340.22;;;19.61;62.83
19811;BME280;10065;49.632;8.346;2023-07-31T05:41:13;100337.91;;;19.71;62.09
19811;BME280;10065;49.632;8.346;2023-07-31T05:43:41;100343.72;;;19.68;62.48
19811;BME280;10065;49.632;8.346;2023-07-31T05:46:13;100339.34;;;19.74;62.59
19811;BME280;10065;49.632;8.346;2023-07-31T05:48:41;100337.47;;;19.87;62.01
19811;BME280;10065;49.632;8.346;2023-07-31T05:51:12;100333.13;;;19.86;61.71
19811;BME280;10065;49.632;8.346;2023-07-31T05:53:47;100328.34;;;19.95;61.31
19811;BME280;10065;49.632;8.346;2023-07-31T05:56:17;100332.09;;;19.87;61.72
19811;BME280;10065;49.632;8.346;2023-07-31T05:58:51;100318.63;;;19.87;61.77
19811;BME280;10065;49.632;8.346;2023-07-31T06:04:05;100321.25;;;20.01;60.91
19811;BME280;10065;49.632;8.346;2023-07-31T06:06:57;100315.88;;;20.01;61.06
19811;BME280;10065;49.632;8.346;2023-07-31T06:09:26;100313.41;;;19.99;61.84
19811;BME280;10065;49.632;8.346;2023-07-31T06:11:56;100323.97;;;20.01;61.55
19811;BME280;10065;49.632;8.346;2023-07-31T06:14:27;100314.63;;;20.03;61.64
19811;BME280;10065;49.632;8.346;2023-07-31T06:16:59;100308.81;;;20.13;62.39
19811;BME280;10065;49.632;8.346;2023-07-31T06:19:27;100309.75;;;20.32;62.11
19811;BME280;10065;49.632;8.346;2023-07-31T06:21:55;100316.38;;;20.36;61.68
19811;BME280;10065;49.632;8.346;2023-07-31T06:24:23;100306.94;;;20.51;60.50
19811;BME280;10065;49.632;8.346;2023-07-31T06:26:51;100307.56;;;20.53;60.55
19811;BME280;10065;49.632;8.346;2023-07-31T06:29:20;100304.44;;;20.56;60.81
19811;BME280;10065;49.632;8.346;2023-07-31T06:31:48;100303.56;;;20.62;60.63
19811;BME280;10065;49.632;8.346;2023-07-31T06:34:27;100306.44;;;20.67;59.71
19811;BME280;10065;49.632;8.346;2023-07-31T06:36:58;100306.44;;;20.67;59.81
19811;BME280;10065;49.632;8.346;2023-07-31T06:39:30;100311.66;;;20.62;59.84
19811;BME280;10065;49.632;8.346;2023-07-31T06:41:59;100316.00;;;20.63;59.92
19811;BME280;10065;49.632;8.346;2023-07-31T06:44:28;100323.88;;;20.65;59.60
19811;BME280;10065;49.632;8.346;2023-07-31T06:46:56;100316.38;;;20.67;59.92
19811;BME280;10065;49.632;8.346;2023-07-31T06:49:24;100320.25;;;20.78;60.00
19811;BME280;10065;49.632;8.346;2023-07-31T06:51:52;100314.81;;;20.84;58.78
19811;BME280;10065;49.632;8.346;2023-07-31T06:54:20;100321.91;;;20.79;59.41
19811;BME280;10065;49.632;8.346;2023-07-31T06:56:47;100321.84;;;20.85;59.39
19811;BME280;10065;49.632;8.346;2023-07-31T06:59:15;100318.28;;;20.91;58.90
19811;BME280;10065;49.632;8.346;2023-07-31T07:01:44;100313.00;;;20.78;59.21
19811;BME280;10065;49.632;8.346;2023-07-31T07:04:13;100320.81;;;20.86;59.14
19811;BME280;10065;49.632;8.346;2023-07-31T07:06:41;100322.56;;;20.74;59.45
19811;BME280;10065;49.632;8.346;2023-07-31T07:09:10;100315.88;;;20.83;59.15
19811;BME280;10065;49.632;8.346;2023-07-31T07:11:38;100317.06;;;20.87;58.96
19811;BME280;10065;49.632;8.346;2023-07-31T07:14:05;100316.97;;;21.00;58.30
19811;BME280;10065;49.632;8.346;2023-07-31T07:16:33;100316.91;;;21.07;58.54
19811;BME280;10065;49.632;8.346;2023-07-31T07:19:03;100316.03;;;21.13;58.57
19811;BME280;10065;49.632;8.346;2023-07-31T07:21:31;100314.44;;;21.30;57.70
19811;BME280;10065;49.632;8.346;2023-07-31T07:23:59;100309.06;;;21.30;57.73
19811;BME280;10065;49.632;8.346;2023-07-31T07:26:27;100304.78;;;21.23;58.45
19811;BME280;10065;49.632;8.346;2023-07-31T07:28:55;100301.97;;;21.36;57.91
19811;BME280;10065;49.632;8.346;2023-07-31T07:31:26;100299.19;;;21.43;58.29
19811;BME280;10065;49.632;8.346;2023-07-31T07:33:54;100296.66;;;21.48;58.35
19811;BME280;10065;49.632;8.346;2023-07-31T07:36:23;100301.09;;;21.60;58.39
19811;BME280;10065;49.632;8.346;2023-07-31T07:38:51;100303.09;;;21.65;58.10
19811;BME280;10065;49.632;8.346;2023-07-31T07:41:19;100301.31;;;21.77;57.72
19811;BME280;10065;49.632;8.346;2023-07-31T07:43:47;100297.41;;;21.91;57.02
19811;BME280;10065;49.632;8.346;2023-07-31T07:46:14;100292.78;;;21.98;56.73
19811;BME280;10065;49.632;8.346;2023-07-31T07:48:42;100295.69;;;21.97;56.86
19811;BME280;10065;49.632;8.346;2023-07-31T07:51:10;100285.78;;;21.91;57.03
19811;BME280;10065;49.632;8.346;2023-07-31T07:53:39;100285.56;;;21.92;57.08
19811;BME280;10065;49.632;8.346;2023-07-31T07:56:07;100286.25;;;21.88;56.88
19811;BME280;10065;49.632;8.346;2023-07-31T07:58:35;100272.16;;;21.86;57.23
19811;BME280;10065;49.632;8.346;2023-07-31T08:01:03;100276.28;;;21.70;57.48
19811;BME280;10065;49.632;8.346;2023-07-31T08:03:31;100274.19;;;21.72;57.90
19811;BME280;10065;49.632;8.346;2023-07-31T08:06:00;100274.53;;;21.75;57.75
19811;BME280;10065;49.632;8.346;2023-07-31T08:08:28;100270.50;;;21.85;57.67
19811;BME280;10065;49.632;8.346;2023-07-31T08:10:57;100271.34;;;22.03;57.26
19811;BME280;10065;49.632;8.346;2023-07-31T08:13:25;100274.00;;;22.22;56.61
19811;BME280;10065;49.632;8.346;2023-07-31T08:15:53;100263.69;;;22.30;55.88
19811;BME280;10065;49.632;8.346;2023-07-31T08:18:21;100253.34;;;22.27;56.06
19811;BME280;10065;49.632;8.346;2023-07-31T08:20:49;100244.34;;;22.33;56.46
19811;BME280;10065;49.632;8.346;2023-07-31T08:23:17;100243.19;;;22.41;56.24
19811;BME280;10065;49.632;8.346;2023-07-31T08:25:45;100241.78;;;22.50;55.84
19811;BME280;10065;49.632;8.346;2023-07-31T08:28:20;100237.38;;;22.67;55.37
19811;BME280;10065;49.632;8.346;2023-07-31T08:30:48;100242.22;;;22.77;55.39
19811;BME280;10065;49.632;8.346;2023-07-31T08:33:20;100232.25;;;22.77;55.38
19811;BME280;10065;49.632;8.346;2023-07-31T08:35:48;100236.34;;;22.80;55.21
19811;BME280;10065;49.632;8.346;2023-07-31T08:38:16;100228.81;;;23.05;54.74
19811;BME280;10065;49.632;8.346;2023-07-31T08:40:44;100223.78;;;23.20;55.30
19811;BME280;10065;49.632;8.346;2023-07-31T08:43:15;100226.81;;;23.24;53.98
19811;BME280;10065;49.632;8.346;2023-07-31T08:45:59;100234.00;;;23.53;53.37
19811;BME280;10065;49.632;8.346;2023-07-31T08:48:28;100227.97;;;23.63;53.16
19811;BME280;10065;49.632;8.346;2023-07-31T08:50:57;100219.13;;;23.68;53.26
19811;BME280;10065;49.632;8.346;2023-07-31T08:53:25;100218.44;;;23.60;53.20
19811;BME280;10065;49.632;8.346;2023-07-31T08:55:53;100216.09;;;23.52;51.33
19811;BME280;10065;49.632;8.346;2023-07-31T08:58:22;100214.47;;;23.51;51.28
19811;BME280;10065;49.632;8.346;2023-07-31T09:00:52;100208.34;;;23.56;50.97
19811;BME280;10065;49.632;8.346;2023-07-31T09:03:24;100217.75;;;23.53;51.01
19811;BME280;10065;49.632;8.346;2023-07-31T09:05:55;100220.78;;;23.69;49.99
19811;BME280;10065;49.632;8.346;2023-07-31T09:08:26;100226.19;;;23.69;50.49
19811;BME280;10065;49.632;8.346;2023-07-31T09:11:02;100213.16;;;23.66;50.58
19811;BME280;10065;49.632;8.346;2023-07-31T09:13:32;100200.28;;;23.73;50.21
19811;BME280;10065;49.632;8.346;2023-07-31T09:16:00;100212.19;;;23.72;49.77
19811;BME280;10065;49.632;8.346;2023-07-31T09:18:30;100210.44;;;23.66;49.92
19811;BME280;10065;49.632;8.346;2023-07-31T09:21:04;100206.31;;;23.63;50.35
19811;BME280;10065;49.632;8.346;2023-07-31T09:23:42;100216.91;;;23.65;50.77
19811;BME280;10065;49.632;8.346;2023-07-31T09:26:37;100207.22;;;23.69;51.01
19811;BME280;10065;49.632;8.346;2023-07-31T09:29:19;100219.25;;;23.73;50.69
19811;BME280;10065;49.632;8.346;2023-07-31T09:32:16;100203.81;;;23.73;50.08
19811;BME280;10065;49.632;8.346;2023-07-31T09:34:49;100199.91;;;23.81;49.77
19811;BME280;10065;49.632;8.346;2023-07-31T09:37:20;100208.53;;;23.66;50.09
19811;BME280;10065;49.632;8.346;2023-07-31T09:39:51;100197.84;;;23.59;50.24
19811;BME280;10065;49.632;8.346;2023-07-31T09:42:27;100181.34;;;23.73;50.36
19811;BME280;10065;49.632;8.346;2023-07-31T09:45:07;100181.19;;;23.79;49.81
19811;BME280;10065;49.632;8.346;2023-07-31T09:47:46;100181.81;;;23.70;50.40
19811;BME280;10065;49.632;8.346;2023-07-31T09:50:17;100183.63;;;23.52;50.46
19811;BME280;10065;49.632;8.346;2023-07-31T09:52:55;100172.22;;;23.50;50.77
19811;BME280;10065;49.632;8.346;2023-07-31T09:55:33;100169.34;;;23.69;50.21
19811;BME280;10065;49.632;8.346;2023-07-31T09:58:04;100166.34;;;23.82;49.60
19811;BME280;10065;49.632;8.346;2023-07-31T10:00:53;100161.75;;;23.82;50.26
19811;BME280;10065;49.632;8.346;2023-07-31T10:03:45;100173.31;;;23.78;49.98
19811;BME280;10065;49.632;8.346;2023-07-31T10:06:54;100162.63;;;23.71;49.51
19811;BME280;10065;49.632;8.346;2023-07-31T10:10:19;100150.44;;;23.57;50.00
19811;BME280;10065;49.632;8.346;2023-07-31T10:12:54;100142.88;;;23.59;50.10
19811;BME280;10065;49.632;8.346;2023-07-31T10:15:44;100141.13;;;23.65;49.41
19811;BME280;10065;49.632;8.346;2023-07-31T10:18:15;100134.22;;;23.57;49.39
19811;BME280;10065;49.632;8.346;2023-07-31T10:21:59;100132.31;;;23.57;50.13
19811;BME280;10065;49.632;8.346;2023-07-31T10:24:54;100130.56;;;23.51;49.72
19811;BME280;10065;49.632;8.346;2023-07-31T10:27:23;100131.97;;;23.42;49.88
19811;BME280;10065;49.632;8.346;2023-07-31T10:29:55;100141.84;;;23.48;49.52
19811;BME280;10065;49.632;8.346;2023-07-31T10:32:24;100149.03;;;23.43;49.67
19811;BME280;10065;49.632;8.346;2023-07-31T10:34:55;100158.56;;;23.45;50.05
19811;BME280;10065;49.632;8.346;2023-07-31T10:37:29;100146.22;;;23.49;50.53
19811;BME280;10065;49.632;8.346;2023-07-31T10:40:04;100154.09;;;23.51;50.49
19811;BME280;10065;49.632;8.346;2023-07-31T10:42:48;100158.69;;;23.50;50.66
19811;BME280;10065;49.632;8.346;2023-07-31T10:45:35;100146.34;;;23.43;50.19
19811;BME280;10065;49.632;8.346;2023-07-31T10:48:13;100147.16;;;23.55;50.21
19811;BME280;10065;49.632;8.346;2023-07-31T10:50:51;100138.69;;;23.80;49.37
19811;BME280;10065;49.632;8.346;2023-07-31T10:54:30;100139.63;;;24.02;48.64
19811;BME280;10065;49.632;8.346;2023-07-31T10:56:45;100136.00;;;23.80;48.86
19811;BME280;10065;49.632;8.346;2023-07-31T10:59:28;100130.38;;;23.70;49.60
19811;BME280;10065;49.632;8.346;2023-07-31T11:02:32;100134.53;;;23.60;49.51
19811;BME280;10065;49.632;8.346;2023-07-31T11:05:44;100120.22;;;23.48;50.20
19811;BME280;10065;49.632;8.346;2023-07-31T11:08:31;100125.41;;;23.38;50.90
19811;BME280;10065;49.632;8.346;2023-07-31T11:14:31;100136.25;;;23.26;51.39
19811;BME280;10065;49.632;8.346;2023-07-31T11:17:08;100132.16;;;23.24;50.94
19811;BME280;10065;49.632;8.346;2023-07-31T11:19:37;100120.72;;;23.22;52.50
19811;BME280;10065;49.632;8.346;2023-07-31T11:22:09;100130.41;;;23.18;54.36
19811;BME280;10065;49.632;8.346;2023-07-31T11:24:44;100128.06;;;23.10;54.51
19811;BME280;10065;49.632;8.346;2023-07-31T11:27:47;100128.41;;;23.13;53.92
19811;BME280;10065;49.632;8.346;2023-07-31T11:30:40;100128.53;;;23.07;54.25
19811;BME280;10065;49.632;8.346;2023-07-31T11:33:22;100124.78;;;23.08;53.02
19811;BME280;10065;49.632;8.346;2023-07-31T11:36:04;100110.44;;;23.07;51.43
19811;BME280;10065;49.632;8.346;2023-07-31T11:38:52;100117.25;;;23.10;51.15
19811;BME280;10065;49.632;8.346;2023-07-31T11:41:22;100114.88;;;23.13;51.41
19811;BME280;10065;49.632;8.346;2023-07-31T11:43:59;100091.25;;;23.20;51.00
19811;BME280;10065;49.632;8.346;2023-07-31T11:46:47;100091.72;;;23.17;51.69
19811;BME280;10065;49.632;8.346;2023-07-31T11:49:18;100084.97;;;23.32;51.08
19811;BME280;10065;49.632;8.346;2023-07-31T11:51:46;100077.78;;;23.37;51.16
19811;BME280;10065;49.632;8.346;2023-07-31T11:54:20;100075.75;;;23.44;51.01
19811;BME280;10065;49.632;8.346;2023-07-31T11:56:50;100076.78;;;23.55;50.33
19811;BME280;10065;49.632;8.346;2023-07-31T11:59:40;100075.00;;;23.60;50.17
19811;BME280;10065;49.632;8.346;2023-07-31T12:05:05;100087.66;;;23.72;50.42
19811;BME280;10065;49.632;8.346;2023-07-31T12:07:47;100085.53;;;23.74;50.15
19811;BME280;10065;49.632;8.346;2023-07-31T12:13:32;100075.25;;;23.76;50.30
19811;BME280;10065;49.632;8.346;2023-07-31T12:16:26;100078.66;;;23.83;50.65
19811;BME280;10065;49.632;8.346;2023-07-31T12:18:54;100070.84;;;23.86;49.95
19811;BME280;10065;49.632;8.346;2023-07-31T12:21:38;100065.69;;;23.85;50.12
19811;BME280;10065;49.632;8.346;2023-07-31T12:24:12;100066.44;;;23.80;50.20
19811;BME280;10065;49.632;8.346;2023-07-31T12:27:09;100069.94;;;23.81;50.16
19811;BME280;10065;49.632;8.346;2023-07-31T12:34:27;100059.94;;;23.65;50.66
19811;BME280;10065;49.632;8.346;2023-07-31T12:41:24;100050.88;;;23.59;51.05
19811;BME280;10065;49.632;8.346;2023-07-31T12:50:13;100037.94;;;23.94;50.29
19811;BME280;10065;49.632;8.346;2023-07-31T12:53:05;100034.81;;;24.02;50.06
19811;BME280;10065;49.632;8.346;2023-07-31T12:59:08;100022.63;;;24.00;49.89
19811;BME280;10065;49.632;8.346;2023-07-31T13:01:49;100020.88;;;23.94;50.55
19811;BME280;10065;49.632;8.346;2023-07-31T13:07:36;100018.03;;;24.00;50.30
19811;BME280;10065;49.632;8.346;2023-07-31T13:13:31;100010.22;;;24.04;50.00
19811;BME280;10065;49.632;8.346;2023-07-31T13:16:01;100008.03;;;24.01;50.21
19811;BME280;10065;49.632;8.346;2023-07-31T13:18:35;100025.34;;;24.00;50.47
19811;BME280;10065;49.632;8.346;2023-07-31T13:21:17;100025.16;;;23.90;50.50
19811;BME280;10065;49.632;8.346;2023-07-31T13:23:56;100011.63;;;23.90;50.49
19811;BME280;10065;49.632;8.346;2023-07-31T13:26:28;100014.22;;;23.85;50.73
19811;BME280;10065;49.632;8.346;2023-07-31T13:29:02;100015.16;;;23.90;50.92
19811;BME280;10065;49.632;8.346;2023-07-31T13:31:35;100012.75;;;23.94;51.33
19811;BME280;10065;49.632;8.346;2023-07-31T13:34:26;100007.75;;;24.02;51.11
19811;BME280;10065;49.632;8.346;2023-07-31T13:37:41;100003.50;;;24.07;51.30
19811;BME280;10065;49.632;8.346;2023-07-31T13:44:24;99998.06;;;24.07;51.55
19811;BME280;10065;49.632;8.346;2023-07-31T13:47:15;100011.78;;;24.00;52.16
19811;BME280;10065;49.632;8.346;2023-07-31T13:49:49;100013.34;;;23.96;52.23
19811;BME280;10065;49.632;8.346;2023-07-31T13:55:23;100016.94;;;23.85;51.91
19811;BME280;10065;49.632;8.346;2023-07-31T13:58:21;100012.34;;;23.85;51.52
19811;BME280;10065;49.632;8.346;2023-07-31T14:04:38;99995.63;;;23.72;51.58
19811;BME280;10065;49.632;8.346;2023-07-31T14:11:08;99987.81;;;23.75;52.31
19811;BME280;10065;49.632;8.346;2023-07-31T14:14:11;99985.38;;;23.74;51.82
19811;BME280;10065;49.632;8.346;2023-07-31T14:20:14;99985.94;;;23.76;51.96
19811;BME280;10065;49.632;8.346;2023-07-31T14:22:52;99987.56;;;23.77;52.13
19811;BME280;10065;49.632;8.346;2023-07-31T14:25:44;99985.44;;;23.79;52.28
19811;BME280;10065;49.632;8.346;2023-07-31T14:28:22;99979.22;;;23.78;52.18
19811;BME280;10065;49.632;8.346;2023-07-31T14:31:27;99972.16;;;23.77;51.86
19811;BME280;10065;49.632;8.346;2023-07-31T14:34:19;99955.72;;;23.84;51.73
19811;BME280;10065;49.632;8.346;2023-07-31T14:37:16;99946.31;;;23.86;51.50
19811;BME280;10065;49.632;8.346;2023-07-31T14:40:51;99952.47;;;23.82;51.61
19811;BME280;10065;49.632;8.346;2023-07-31T14:43:33;99935.59;;;23.75;51.38
19811;BME280;10065;49.632;8.346;2023-07-31T14:46:20;99935.59;;;23.75;51.50
19811;BME280;10065;49.632;8.346;2023-07-31T14:48:48;99933.38;;;23.72;51.38
19811;BME280;10065;49.632;8.346;2023-07-31T14:51:19;99940.19;;;23.74;51.39
19811;BME280;10065;49.632;8.346;2023-07-31T14:54:03;99948.19;;;23.69;51.25
19811;BME280;10065;49.632;8.346;2023-07-31T14:56:57;99939.19;;;23.63;51.44
19811;BME280;10065;49.632;8.346;2023-07-31T14:59:55;99940.25;;;23.62;51.42
19811;BME280;10065;49.632;8.346;2023-07-31T15:02:34;99939.69;;;23.60;51.87
19811;BME280;10065;49.632;8.346;2023-07-31T15:05:27;99935.91;;;23.61;51.52
19811;BME280;10065;49.632;8.346;2023-07-31T15:08:10;99937.56;;;23.62;51.76
19811;BME280;10065;49.632;8.346;2023-07-31T15:10:44;99945.44;;;23.64;51.27
19811;BME280;10065;49.632;8.346;2023-07-31T15:13:23;99962.50;;;23.65;51.14
19811;BME280;10065;49.632;8.346;2023-07-31T15:16:15;99955.50;;;23.69;49.89
19811;BME280;10065;49.632;8.346;2023-07-31T15:18:45;99955.44;;;23.63;50.02
19811;BME280;10065;49.632;8.346;2023-07-31T15:21:26;99952.72;;;23.63;50.29
19811;BME280;10065;49.632;8.346;2023-07-31T15:24:26;99938.69;;;23.67;50.23
19811;BME280;10065;49.632;8.346;2023-07-31T15:27:21;99944.09;;;23.67;50.31
19811;BME280;10065;49.632;8.346;2023-07-31T15:29:58;99941.97;;;23.69;50.51
19811;BME280;10065;49.632;8.346;2023-07-31T15:32:29;99940.31;;;23.68;50.70
19811;BME280;10065;49.632;8.346;2023-07-31T15:35:06;99942.56;;;23.71;50.32
19811;BME280;10065;49.632;8.346;2023-07-31T15:37:34;99944.78;;;23.74;50.52
19811;BME280;10065;49.632;8.346;2023-07-31T15:40:38;99940.19;;;23.74;50.58
19811;BME280;10065;49.632;8.346;2023-07-31T15:44:17;99936.66;;;23.74;50.95
19811;BME280;10065;49.632;8.346;2023-07-31T15:46:55;99930.19;;;23.75;51.25
19811;BME280;10065;49.632;8.346;2023-07-31T15:49:48;99916.47;;;23.81;50.95
19811;BME280;10065;49.632;8.346;2023-07-31T15:52:42;99912.41;;;23.84;50.84
19811;BME280;10065;49.632;8.346;2023-07-31T15:55:11;99900.94;;;23.77;51.12
19811;BME280;10065;49.632;8.346;2023-07-31T15:57:39;99912.28;;;23.74;51.11
19811;BME280;10065;49.632;8.346;2023-07-31T16:03:35;99925.16;;;23.67;51.47
19811;BME280;10065;49.632;8.346;2023-07-31T16:06:24;99929.19;;;23.64;52.01
19811;BME280;10065;49.632;8.346;2023-07-31T16:09:11;99922.44;;;23.67;51.90
19811;BME280;10065;49.632;8.346;2023-07-31T16:12:01;99913.69;;;23.59;52.20
19811;BME280;10065;49.632;8.346;2023-07-31T16:14:32;99911.13;;;23.53;52.42
19811;BME280;10065;49.632;8.346;2023-07-31T16:18:02;99914.56;;;23.48;53.71
19811;BME280;10065;49.632;8.346;2023-07-31T16:20:54;99920.94;;;23.42;55.47
19811;BME280;10065;49.632;8.346;2023-07-31T16:27:05;99906.59;;;23.25;58.72
19811;BME280;10065;49.632;8.346;2023-07-31T16:29:55;99904.19;;;23.12;59.26
19811;BME280;10065;49.632;8.346;2023-07-31T16:36:03;99894.50;;;22.99;61.59
19811;BME280;10065;49.632;8.346;2023-07-31T16:38:52;99893.84;;;22.92;61.17
19811;BME280;10065;49.632;8.346;2023-07-31T16:41:25;99889.97;;;22.88;63.21
19811;BME280;10065;49.632;8.346;2023-07-31T16:44:16;99878.84;;;22.84;64.52
19811;BME280;10065;49.632;8.346;2023-07-31T16:46:44;99877.66;;;22.80;64.85
19811;BME280;10065;49.632;8.346;2023-07-31T16:49:15;99880.63;;;22.67;66.99
19811;BME280;10065;49.632;8.346;2023-07-31T16:51:45;99885.38;;;22.60;68.73
19811;BME280;10065;49.632;8.346;2023-07-31T16:54:17;99874.81;;;22.59;69.36
19811;BME280;10065;49.632;8.346;2023-07-31T16:56:46;99863.88;;;22.53;70.61
19811;BME280;10065;49.632;8.346;2023-07-31T16:59:26;99860.25;;;22.48;70.55
19811;BME280;10065;49.632;8.346;2023-07-31T17:01:58;99863.94;;;22.42;70.58
19811;BME280;10065;49.632;8.346;2023-07-31T17:04:26;99869.72;;;22.34;71.84
19811;BME280;10065;49.632;8.346;2023-07-31T17:06:59;99871.59;;;22.33;73.26
19811;BME280;10065;49.632;8.346;2023-07-31T17:09:43;99877.22;;;22.32;73.71
19811;BME280;10065;49.632;8.346;2023-07-31T17:12:13;99863.72;;;22.32;73.69
19811;BME280;10065;49.632;8.346;2023-07-31T17:14:41;99865.38;;;22.33;72.77
19811;BME280;10065;49.632;8.346;2023-07-31T17:17:11;99860.22;;;22.31;73.57
19811;BME280;10065;49.632;8.346;2023-07-31T17:19:53;99864.78;;;22.31;74.69
19811;BME280;10065;49.632;8.346;2023-07-31T17:22:37;99877.59;;;22.24;73.40
19811;BME280;10065;49.632;8.346;2023-07-31T17:25:16;99876.66;;;22.18;73.88
19811;BME280;10065;49.632;8.346;2023-07-31T17:27:45;99876.91;;;22.17;74.85
19811;BME280;10065;49.632;8.346;2023-07-31T17:30:16;99884.75;;;22.18;75.04
19811;BME280;10065;49.632;8.346;2023-07-31T17:32:47;99876.34;;;22.14;75.57
19811;BME280;10065;49.632;8.346;2023-07-31T17:35:16;99871.75;;;22.15;77.64
19811;BME280;10065;49.632;8.346;2023-07-31T17:37:46;99870.25;;;22.07;78.01
19811;BME280;10065;49.632;8.346;2023-07-31T17:40:27;99864.13;;;22.00;77.61
19811;BME280;10065;49.632;8.346;2023-07-31T17:42:56;99867.41;;;22.02;76.55
19811;BME280;10065;49.632;8.346;2023-07-31T17:45:27;99867.41;;;22.02;74.82
19811;BME280;10065;49.632;8.346;2023-07-31T17:47:56;99851.34;;;22.07;73.94
19811;BME280;10065;49.632;8.346;2023-07-31T17:50:24;99842.53;;;22.00;73.60
19811;BME280;10065;49.632;8.346;2023-07-31T17:52:53;99845.09;;;21.95;72.62
19811;BME280;10065;49.632;8.346;2023-07-31T17:55:21;99850.88;;;21.99;70.88
19811;BME280;10065;49.632;8.346;2023-07-31T17:57:50;99850.97;;;21.92;70.37
19811;BME280;10065;49.632;8.346;2023-07-31T18:00:19;99858.16;;;21.87;69.63
19811;BME280;10065;49.632;8.346;2023-07-31T18:02:51;99839.03;;;21.88;68.92
19811;BME280;10065;49.632;8.346;2023-07-31T18:05:26;99845.13;;;21.84;69.03
19811;BME280;10065;49.632;8.346;2023-07-31T18:07:56;99839.84;;;21.89;68.62
19811;BME280;10065;49.632;8.346;2023-07-31T18:10:26;99844.78;;;21.80;69.37
19811;BME280;10065;49.632;8.346;2023-07-31T18:12:55;99846.28;;;21.76;69.58
19811;BME280;10065;49.632;8.346;2023-07-31T18:15:24;99840.44;;;21.79;70.28
19811;BME280;10065;49.632;8.346;2023-07-31T18:17:52;99840.91;;;21.76;70.16
19811;BME280;10065;49.632;8.346;2023-07-31T18:20:21;99839.25;;;21.75;71.12
19811;BME280;10065;49.632;8.346;2023-07-31T18:22:51;99835.50;;;21.76;71.07
19811;BME280;10065;49.632;8.346;2023-07-31T18:25:50;99836.47;;;21.70;71.94
19811;BME280;10065;49.632;8.346;2023-07-31T18:28:18;99836.91;;;21.67;72.19
19811;BME280;10065;49.632;8.346;2023-07-31T18:31:00;99847.47;;;21.57;73.38
19811;BME280;10065;49.632;8.346;2023-07-31T18:33:31;99837.28;;;21.59;73.73
19811;BME280;10065;49.632;8.346;2023-07-31T18:36:05;99833.75;;;21.58;72.70
19811;BME280;10065;49.632;8.346;2023-07-31T18:41:50;99828.00;;;21.43;73.26
19811;BME280;10065;49.632;8.346;2023-07-31T18:44:18;99831.88;;;21.35;72.91
19811;BME280;10065;49.632;8.346;2023-07-31T18:46:46;99832.94;;;21.34;73.23
19811;BME280;10065;49.632;8.346;2023-07-31T18:49:14;99843.25;;;21.37;71.74
19811;BME280;10065;49.632;8.346;2023-07-31T18:51:43;99828.50;;;21.28;72.81
19811;BME280;10065;49.632;8.346;2023-07-31T18:54:13;99835.03;;;21.32;72.71
19811;BME280;10065;49.632;8.346;2023-07-31T18:56:41;99832.78;;;21.29;72.86
19811;BME280;10065;49.632;8.346;2023-07-31T18:59:10;99830.09;;;21.29;72.95
19811;BME280;10065;49.632;8.346;2023-07-31T19:01:39;99825.06;;;21.21;73.83
19811;BME280;10065;49.632;8.346;2023-07-31T19:04:10;99827.19;;;21.19;74.00
19811;BME280;10065;49.632;8.346;2023-07-31T19:06:40;99828.94;;;21.25;73.88
19811;BME280;10065;49.632;8.346;2023-07-31T19:09:27;99827.75;;;21.21;73.58
19811;BME280;10065;49.632;8.346;2023-07-31T19:11:58;99822.97;;;21.23;73.54
19811;BME280;10065;49.632;8.346;2023-07-31T19:14:29;99820.25;;;21.23;73.68
19811;BME280;10065;49.632;8.346;2023-07-31T19:16:57;99821.09;;;21.24;73.17
19811;BME280;10065;49.632;8.346;2023-07-31T19:19:28;99822.66;;;21.13;73.82
19811;BME280;10065;49.632;8.346;2023-07-31T19:21:56;99811.28;;;21.11;74.12
19811;BME280;10065;49.632;8.346;2023-07-31T19:24:24;99800.78;;;21.10;74.27
19811;BME280;10065;49.632;8.346;2023-07-31T19:27:01;99798.53;;;21.07;74.16
19811;BME280;10065;49.632;8.346;2023-07-31T19:29:34;99813.28;;;21.04;74.44
19811;BME280;10065;49.632;8.346;2023-07-31T19:32:03;99810.50;;;21.11;73.84
19811;BME280;10065;49.632;8.346;2023-07-31T19:35:05;99801.28;;;21.18;72.81
19811;BME280;10065;49.632;8.346;2023-07-31T19:37:35;99803.81;;;21.13;72.95
19811;BME280;10065;49.632;8.346;2023-07-31T19:40:04;99799.94;;;21.09;73.01
19811;BME280;10065;49.632;8.346;2023-07-31T19:42:33;99788.69;;;21.00;73.08
19811;BME280;10065;49.632;8.346;2023-07-31T19:45:04;99797.00;;;20.99;73.15
19811;BME280;10065;49.632;8.346;2023-07-31T19:47:38;99809.88;;;20.97;73.24
19811;BME280;10065;49.632;8.346;2023-07-31T19:50:09;99807.78;;;20.99;72.95
19811;BME280;10065;49.632;8.346;2023-07-31T19:52:38;99822.75;;;20.95;73.07
19811;BME280;10065;49.632;8.346;2023-07-31T19:55:15;99817.38;;;20.95;74.06
19811;BME280;10065;49.632;8.346;2023-07-31T19:57:46;99816.81;;;20.93;74.70
19811;BME280;10065;49.632;8.346;2023-07-31T20:00:16;99817.47;;;20.88;75.55
19811;BME280;10065;49.632;8.346;2023-07-31T20:02:43;99813.13;;;20.76;77.13